createdAt,value
2023-02-02T00:01:47.010Z,39.05
2023-02-02T00:04:19.243Z,33.35
2023-02-02T00:06:48.633Z,31.52
2023-02-02T00:09:19.180Z,36.75
2023-02-02T00:11:51.125Z,39.45
2023-02-02T00:14:19.829Z,35.88
2023-02-02T00:16:49.167Z,32.33
2023-02-02T00:19:20.572Z,34.25
2023-02-02T00:21:49.586Z,38.35
2023-02-02T00:24:19.508Z,33.70
2023-02-02T00:26:52.140Z,38.78
2023-02-02T00:29:23.554Z,35.55
2023-02-02T00:31:52.784Z,37.65
2023-02-02T00:34:21.991Z,39.40
2023-02-02T00:36:51.799Z,38.83
2023-02-02T00:39:25.451Z,31.00
2023-02-02T00:41:55.875Z,44.30
2023-02-02T00:44:41.681Z,41.08
2023-02-02T00:47:10.051Z,34.22
2023-02-02T00:49:38.305Z,42.00
2023-02-02T00:52:06.768Z,39.00
2023-02-02T00:54:35.085Z,40.35
2023-02-02T00:57:05.815Z,34.88
2023-02-02T00:59:34.670Z,43.25
2023-02-02T01:02:03.137Z,35.67
2023-02-02T01:04:31.656Z,43.90
2023-02-02T01:07:00.069Z,41.97
2023-02-02T01:09:28.588Z,40.58
2023-02-02T01:11:56.997Z,34.90
2023-02-02T01:14:28.535Z,37.17
2023-02-02T01:16:57.456Z,42.75
2023-02-02T01:19:27.810Z,40.55
2023-02-02T01:21:56.249Z,43.72
2023-02-02T01:24:24.560Z,36.85
2023-02-02T01:26:52.885Z,34.47
2023-02-02T01:29:21.245Z,35.17
2023-02-02T01:31:51.109Z,34.10
2023-02-02T01:34:19.809Z,34.33
2023-02-02T01:36:48.270Z,47.90
2023-02-02T01:39:16.710Z,36.53
2023-02-02T01:41:45.023Z,26.02
2023-02-02T01:45:11.121Z,33.03
2023-02-02T01:47:48.614Z,39.80
2023-02-02T01:50:19.329Z,39.20
2023-02-02T01:55:23.621Z,33.67
2023-02-02T01:57:57.990Z,33.40
2023-02-02T02:00:27.823Z,37.70
2023-02-02T02:03:02.436Z,31.50
2023-02-02T02:05:36.531Z,42.40
2023-02-02T02:08:13.359Z,35.22
2023-02-02T02:10:41.831Z,37.97
2023-02-02T02:13:10.655Z,42.08
2023-02-02T02:16:05.890Z,47.20
2023-02-02T02:18:47.085Z,35.67
2023-02-02T02:22:10.703Z,41.30
2023-02-02T02:25:37.438Z,35.40
2023-02-02T02:28:35.821Z,34.05
2023-02-02T02:31:49.146Z,30.98
2023-02-02T02:34:28.120Z,38.00
2023-02-02T02:37:05.361Z,34.45
2023-02-02T02:39:40.044Z,34.50
2023-02-02T02:42:16.436Z,35.50
2023-02-02T02:44:46.315Z,33.38
2023-02-02T02:47:14.844Z,37.88
2023-02-02T02:49:46.331Z,31.08
2023-02-02T02:52:15.900Z,32.88
2023-02-02T02:54:49.823Z,30.27
2023-02-02T02:57:39.380Z,29.95
2023-02-02T03:00:27.233Z,32.70
2023-02-02T03:03:04.530Z,33.50
2023-02-02T03:05:44.802Z,40.30
2023-02-02T03:08:18.903Z,41.65
2023-02-02T03:10:48.527Z,31.60
2023-02-02T03:13:17.960Z,30.48
2023-02-02T03:15:47.871Z,37.13
2023-02-02T03:18:19.162Z,37.70
2023-02-02T03:20:48.977Z,31.05
2023-02-02T03:23:17.665Z,30.63
2023-02-02T03:25:46.447Z,33.88
2023-02-02T03:28:15.878Z,38.13
2023-02-02T03:30:46.282Z,34.08
2023-02-02T03:33:16.387Z,41.55
2023-02-02T03:35:44.820Z,31.00
2023-02-02T03:38:14.542Z,32.78
2023-02-02T03:40:43.087Z,42.20
2023-02-02T03:43:11.562Z,37.85
2023-02-02T03:45:40.820Z,34.78
2023-02-02T03:48:09.340Z,36.83
2023-02-02T03:50:38.743Z,26.05
2023-02-02T03:53:07.243Z,45.90
2023-02-02T03:55:38.924Z,32.67
2023-02-02T03:58:07.337Z,34.33
2023-02-02T04:00:38.813Z,35.22
2023-02-02T04:03:07.354Z,37.17
2023-02-02T04:05:35.733Z,32.40
2023-02-02T04:08:04.117Z,32.17
2023-02-02T04:10:32.416Z,35.67
2023-02-02T04:13:05.157Z,33.65
2023-02-02T04:15:33.533Z,31.70
2023-02-02T04:18:03.726Z,33.25
2023-02-02T04:20:32.123Z,28.33
2023-02-02T04:23:00.729Z,25.45
2023-02-02T04:25:29.176Z,27.40
2023-02-02T04:27:57.517Z,28.48
2023-02-02T04:30:27.239Z,24.98
2023-02-02T04:32:56.564Z,32.60
2023-02-02T04:35:25.164Z,30.52
2023-02-02T04:37:53.687Z,32.92
2023-02-02T04:40:22.031Z,30.52
2023-02-02T04:42:53.251Z,37.67
2023-02-02T04:45:21.875Z,28.60
2023-02-02T04:47:52.351Z,26.17
2023-02-02T04:50:20.853Z,28.98
2023-02-02T04:52:49.159Z,31.88
2023-02-02T04:55:17.931Z,36.22
2023-02-02T04:57:46.416Z,33.75
2023-02-02T05:00:17.004Z,29.95
2023-02-02T05:02:45.494Z,27.33
2023-02-02T05:05:16.108Z,34.30
2023-02-02T05:07:44.473Z,27.58
2023-02-02T05:10:13.844Z,35.67
2023-02-02T05:12:44.946Z,35.15
2023-02-02T05:15:13.479Z,25.98
2023-02-02T05:17:41.817Z,29.40
2023-02-02T05:20:12.226Z,30.95
2023-02-02T05:22:42.120Z,33.20
2023-02-02T05:25:11.408Z,33.20
2023-02-02T05:27:39.724Z,26.45
2023-02-02T05:30:10.656Z,29.92
2023-02-02T05:32:39.017Z,34.58
2023-02-02T05:35:09.760Z,33.13
2023-02-02T05:37:38.306Z,32.40
2023-02-02T05:40:09.753Z,31.70
2023-02-02T05:42:38.218Z,32.42
2023-02-02T05:45:07.732Z,29.85
2023-02-02T05:47:36.633Z,29.98
2023-02-02T05:50:05.163Z,24.25
2023-02-02T05:52:36.607Z,28.50
2023-02-02T05:55:07.909Z,22.52
2023-02-02T05:57:36.336Z,27.27
2023-02-02T06:00:06.718Z,28.65
2023-02-02T06:02:40.631Z,32.53
2023-02-02T06:05:10.123Z,33.60
2023-02-02T06:07:38.509Z,27.52
2023-02-02T06:10:09.247Z,26.15
2023-02-02T06:15:07.293Z,30.73
2023-02-02T06:17:36.106Z,35.95
2023-02-02T06:20:05.743Z,38.15
2023-02-02T06:22:34.447Z,32.72
2023-02-02T06:25:04.392Z,30.25
2023-02-02T06:27:34.139Z,30.52
2023-02-02T06:30:02.665Z,31.07
2023-02-02T06:32:31.259Z,30.77
2023-02-02T06:34:59.636Z,36.28
2023-02-02T06:37:30.584Z,26.45
2023-02-02T06:39:59.090Z,28.13
2023-02-02T06:42:29.852Z,38.42
2023-02-02T06:44:59.726Z,32.83
2023-02-02T06:47:28.116Z,36.53
2023-02-02T06:49:56.430Z,25.15
2023-02-02T06:52:24.962Z,25.70
2023-02-02T06:54:53.277Z,26.33
2023-02-02T06:57:21.814Z,32.15
2023-02-02T06:59:51.224Z,25.50
2023-02-02T07:02:23.641Z,27.45
2023-02-02T07:04:52.985Z,27.52
2023-02-02T07:07:21.447Z,29.52
2023-02-02T07:09:58.116Z,27.30
2023-02-02T07:12:28.800Z,32.42
2023-02-02T07:14:59.411Z,24.85
2023-02-02T07:19:57.635Z,24.35
2023-02-02T07:22:26.155Z,28.50
2023-02-02T07:24:54.561Z,24.92
2023-02-02T07:27:22.981Z,25.85
2023-02-02T07:29:51.528Z,28.77
2023-02-02T07:32:20.107Z,24.75
2023-02-02T07:34:49.835Z,23.60
2023-02-02T07:37:18.422Z,24.20
2023-02-02T07:39:46.836Z,26.50
2023-02-02T07:42:15.445Z,27.13
2023-02-02T07:44:43.960Z,24.85
2023-02-02T07:47:12.368Z,25.83
2023-02-02T07:49:40.941Z,28.30
2023-02-02T07:52:13.095Z,30.65
2023-02-02T07:54:41.439Z,30.95
2023-02-02T07:57:13.784Z,33.65
2023-02-02T07:59:42.317Z,30.85
2023-02-02T08:02:11.603Z,29.75
2023-02-02T08:04:40.025Z,29.17
2023-02-02T08:07:08.393Z,35.70
2023-02-02T08:09:40.781Z,37.40
2023-02-02T08:12:09.205Z,32.00
2023-02-02T08:14:37.797Z,34.75
2023-02-02T08:17:09.334Z,31.00
2023-02-02T08:19:37.740Z,30.38
2023-02-02T08:22:06.145Z,31.30
2023-02-02T08:24:34.675Z,29.00
2023-02-02T08:27:06.665Z,28.27
2023-02-02T08:29:35.385Z,31.48
2023-02-02T08:32:04.361Z,28.55
2023-02-02T08:34:34.903Z,30.42
2023-02-02T08:37:03.515Z,32.50
2023-02-02T08:39:31.912Z,29.95
2023-02-02T08:42:00.449Z,29.25
2023-02-02T08:46:00.114Z,34.40
2023-02-02T08:47:18.808Z,26.57
2023-02-02T08:49:47.445Z,25.75
2023-02-02T08:52:15.885Z,32.45
2023-02-02T08:54:44.220Z,27.88
2023-02-02T08:57:12.754Z,27.42
2023-02-02T08:59:42.474Z,35.55
2023-02-02T09:02:14.069Z,29.60
2023-02-02T09:04:45.345Z,29.88
2023-02-02T09:07:13.810Z,29.95
2023-02-02T09:09:42.242Z,26.55
2023-02-02T09:12:10.656Z,37.22
2023-02-02T09:14:39.063Z,34.15
2023-02-02T09:17:08.830Z,27.92
2023-02-02T09:19:37.195Z,26.73
2023-02-02T09:22:05.596Z,33.50
2023-02-02T09:24:34.031Z,30.90
2023-02-02T09:27:02.726Z,31.55
2023-02-02T09:29:31.365Z,27.90
2023-02-02T09:31:59.801Z,30.30
2023-02-02T09:34:29.685Z,31.75
2023-02-02T09:36:58.488Z,28.50
2023-02-02T09:39:26.969Z,26.63
2023-02-02T09:42:33.878Z,26.30
2023-02-02T09:45:10.089Z,29.70
2023-02-02T09:47:55.675Z,32.00
2023-02-02T09:50:41.535Z,33.03
2023-02-02T09:53:19.623Z,24.83
2023-02-02T09:55:53.677Z,27.58
2023-02-02T09:58:27.446Z,24.38
2023-02-02T10:01:04.824Z,32.95
2023-02-02T10:03:39.072Z,30.48
2023-02-02T10:06:23.183Z,29.35
2023-02-02T10:08:56.351Z,25.42
2023-02-02T10:11:34.728Z,25.15
2023-02-02T10:14:07.631Z,26.15
2023-02-02T10:16:37.717Z,22.58
2023-02-02T10:19:12.414Z,22.83
2023-02-02T10:21:49.995Z,24.83
2023-02-02T10:24:21.578Z,22.50
2023-02-02T10:26:52.968Z,26.60
2023-02-02T10:29:48.220Z,24.55
2023-02-02T10:32:25.100Z,24.30
2023-02-02T10:35:17.301Z,26.13
2023-02-02T10:37:56.514Z,22.17
2023-02-02T10:40:42.091Z,24.88
2023-02-02T10:43:54.566Z,22.85
2023-02-02T10:46:29.020Z,28.20
2023-02-02T10:49:14.798Z,26.08
2023-02-02T10:51:47.299Z,26.05
2023-02-02T10:54:56.472Z,22.10
2023-02-02T10:57:48.169Z,22.60
2023-02-02T11:00:24.186Z,23.00
2023-02-02T11:02:53.945Z,21.48
2023-02-02T11:05:43.428Z,16.77
2023-02-02T11:08:16.658Z,21.08
2023-02-02T11:10:49.017Z,24.42
2023-02-02T11:13:28.204Z,19.75
2023-02-02T11:16:21.995Z,20.35
2023-02-02T11:18:51.199Z,26.42
2023-02-02T11:21:27.541Z,28.20
2023-02-02T11:24:01.152Z,27.05
2023-02-02T11:26:44.946Z,20.35
2023-02-02T11:29:17.496Z,22.20
2023-02-02T11:31:46.910Z,26.48
2023-02-02T11:34:22.055Z,18.48
2023-02-02T11:37:14.759Z,27.70
2023-02-02T11:39:44.723Z,19.65
2023-02-02T11:42:19.192Z,18.38
2023-02-02T11:44:51.489Z,21.25
2023-02-02T11:47:27.923Z,22.38
2023-02-02T11:49:59.672Z,24.10
2023-02-02T11:52:32.726Z,22.67
2023-02-02T11:55:04.036Z,23.92
2023-02-02T11:57:33.861Z,19.50
2023-02-02T12:00:19.873Z,22.07
2023-02-02T12:02:49.488Z,18.23
2023-02-02T12:05:37.463Z,23.13
2023-02-02T12:08:06.945Z,24.02
2023-02-02T12:10:43.541Z,25.95
2023-02-02T12:13:32.624Z,24.70
2023-02-02T12:16:20.744Z,20.05
2023-02-02T12:19:06.669Z,23.17
2023-02-02T12:21:44.332Z,25.98
2023-02-02T12:24:31.366Z,21.15
2023-02-02T12:27:19.372Z,19.73
2023-02-02T12:30:24.589Z,18.52
2023-02-02T12:33:08.708Z,24.55
2023-02-02T12:35:59.141Z,19.70
2023-02-02T12:39:01.727Z,22.58
2023-02-02T12:41:50.726Z,24.85
2023-02-02T12:44:29.829Z,24.77
2023-02-02T12:47:14.662Z,26.42
2023-02-02T12:50:04.242Z,23.40
2023-02-02T12:52:53.840Z,22.70
2023-02-02T12:55:31.137Z,23.23
2023-02-02T12:58:10.342Z,22.63
2023-02-02T13:01:22.816Z,21.15
2023-02-02T13:04:12.471Z,16.77
2023-02-02T13:07:22.328Z,12.00
2023-02-02T13:10:02.551Z,19.02
2023-02-02T13:12:35.547Z,14.38
2023-02-02T13:15:09.022Z,18.67
2023-02-02T13:17:43.125Z,15.88
2023-02-02T13:20:25.543Z,18.42
2023-02-02T13:23:00.035Z,23.63
2023-02-02T13:25:32.979Z,15.65
2023-02-02T13:28:02.032Z,20.10
2023-02-02T13:30:37.937Z,17.13
2023-02-02T13:33:16.412Z,17.60
2023-02-02T13:35:53.626Z,20.08
2023-02-02T13:38:26.080Z,20.13
2023-02-02T13:40:58.304Z,12.48
2023-02-02T13:43:38.601Z,20.75
2023-02-02T13:46:22.893Z,24.30
2023-02-02T13:49:06.664Z,24.25
2023-02-02T13:51:54.767Z,21.27
2023-02-02T13:55:22.234Z,20.02
2023-02-02T13:58:33.892Z,18.65
2023-02-02T14:01:07.427Z,19.13
2023-02-02T14:03:39.993Z,22.45
2023-02-02T14:06:13.946Z,25.25
2023-02-02T14:08:52.215Z,27.25
2023-02-02T14:11:27.027Z,23.83
2023-02-02T14:14:18.130Z,24.17
2023-02-02T14:16:52.765Z,22.52
2023-02-02T14:19:51.260Z,22.98
2023-02-02T14:22:42.977Z,27.67
2023-02-02T14:25:55.329Z,29.17
2023-02-02T14:28:46.595Z,22.20
2023-02-02T14:31:45.755Z,27.48
2023-02-02T14:34:35.807Z,17.13
2023-02-02T14:37:32.242Z,28.08
2023-02-02T14:40:20.000Z,25.08
2023-02-02T14:43:23.162Z,21.05
2023-02-02T14:46:24.446Z,18.55
2023-02-02T14:49:14.423Z,28.67
2023-02-02T14:51:59.923Z,31.73
2023-02-02T14:54:34.279Z,25.25
2023-02-02T14:57:06.154Z,22.42
2023-02-02T14:59:38.642Z,26.67
2023-02-02T15:02:18.905Z,20.30
2023-02-02T15:04:48.302Z,23.30
2023-02-02T15:07:54.900Z,27.85
2023-02-02T15:11:25.426Z,21.15
2023-02-02T15:14:07.111Z,19.35
2023-02-02T15:16:39.765Z,22.88
2023-02-02T15:19:32.436Z,23.45
2023-02-02T15:22:24.486Z,32.35
2023-02-02T15:24:54.354Z,22.52
2023-02-02T15:27:25.204Z,20.20
2023-02-02T15:29:58.283Z,28.45
2023-02-02T15:32:28.808Z,21.75
2023-02-02T15:35:02.337Z,23.88
2023-02-02T15:37:40.201Z,25.80
2023-02-02T15:40:15.592Z,26.95
2023-02-02T15:42:55.805Z,22.27
2023-02-02T15:45:48.162Z,26.80
2023-02-02T15:48:27.302Z,27.75
2023-02-02T15:50:56.386Z,22.20
2023-02-02T15:53:28.295Z,31.40
2023-02-02T15:55:58.135Z,31.77
2023-02-02T15:58:35.861Z,19.23
2023-02-02T16:01:07.191Z,23.23
2023-02-02T16:03:52.652Z,21.23
2023-02-02T16:06:22.324Z,21.63
2023-02-02T16:08:51.309Z,25.75
2023-02-02T16:11:23.285Z,21.83
2023-02-02T16:14:02.590Z,21.83
2023-02-02T16:16:33.654Z,21.65
2023-02-02T16:19:16.301Z,19.08
2023-02-02T16:21:52.572Z,22.90
2023-02-02T16:24:25.752Z,15.75
2023-02-02T16:26:55.889Z,23.33
2023-02-02T16:29:24.642Z,19.75
2023-02-02T16:31:53.354Z,21.48
2023-02-02T16:34:47.443Z,37.67
2023-02-02T16:37:18.862Z,18.70
2023-02-02T16:39:47.330Z,23.20
2023-02-02T16:42:27.017Z,17.90
2023-02-02T16:44:59.357Z,20.52
2023-02-02T16:47:39.904Z,19.50
2023-02-02T16:50:30.817Z,18.88
2023-02-02T16:53:03.510Z,18.10
2023-02-02T16:55:49.413Z,17.45
2023-02-02T16:58:23.072Z,25.38
2023-02-02T17:01:13.939Z,19.45
2023-02-02T17:03:51.450Z,22.98
2023-02-02T17:06:38.285Z,19.20
2023-02-02T17:09:34.140Z,16.77
2023-02-02T17:12:14.194Z,19.58
2023-02-02T17:14:54.490Z,15.20
2023-02-02T17:17:23.197Z,17.52
2023-02-02T17:19:52.358Z,14.82
2023-02-02T17:22:25.499Z,25.02
2023-02-02T17:24:54.599Z,22.17
2023-02-02T17:27:29.213Z,16.58
2023-02-02T17:29:58.462Z,22.48
2023-02-02T17:32:28.147Z,18.90
2023-02-02T17:34:57.228Z,25.67
2023-02-02T17:37:29.586Z,21.90
2023-02-02T17:39:57.925Z,17.75
2023-02-02T17:42:30.576Z,19.60
2023-02-02T17:44:59.078Z,20.17
2023-02-02T17:47:27.583Z,20.17
2023-02-02T17:49:55.971Z,18.80
2023-02-02T17:52:24.635Z,15.68
2023-02-02T17:54:54.530Z,16.25
2023-02-02T17:57:22.878Z,18.75
2023-02-02T17:59:51.545Z,19.70
2023-02-02T18:02:20.169Z,24.38
2023-02-02T18:04:48.573Z,21.27
2023-02-02T18:07:17.039Z,21.98
2023-02-02T18:09:45.436Z,23.15
2023-02-02T18:12:15.389Z,20.75
2023-02-02T18:14:43.999Z,20.83
2023-02-02T18:17:12.428Z,24.67
2023-02-02T18:19:44.996Z,24.95
2023-02-02T18:22:16.387Z,18.55
2023-02-02T18:24:44.994Z,22.13
2023-02-02T18:27:15.836Z,17.95
2023-02-02T18:29:44.704Z,24.60
2023-02-02T18:32:13.133Z,28.27
2023-02-02T18:34:42.219Z,20.48
2023-02-02T18:37:11.117Z,22.92
2023-02-02T18:39:39.529Z,19.88
2023-02-02T18:42:07.945Z,19.90
2023-02-02T18:44:38.642Z,22.83
2023-02-02T18:49:35.628Z,23.25
2023-02-02T18:52:04.038Z,17.65
2023-02-02T18:54:35.554Z,19.52
2023-02-02T18:57:04.318Z,22.05
2023-02-02T18:59:32.638Z,23.77
2023-02-02T19:02:02.512Z,24.42
2023-02-02T19:04:31.389Z,20.23
2023-02-02T19:07:17.228Z,17.10
2023-02-02T19:09:45.765Z,19.75
2023-02-02T19:12:15.671Z,17.42
2023-02-02T19:14:44.089Z,22.92
2023-02-02T19:17:24.661Z,27.05
2023-02-02T19:19:53.169Z,29.92
2023-02-02T19:22:24.876Z,22.92
2023-02-02T19:24:53.264Z,20.00
2023-02-02T19:27:24.056Z,22.08
2023-02-02T19:29:56.152Z,25.50
2023-02-02T19:32:28.040Z,23.45
2023-02-02T19:35:01.252Z,23.77
2023-02-02T19:37:31.614Z,20.90
2023-02-02T19:40:19.788Z,19.20
2023-02-02T19:42:52.733Z,28.80
2023-02-02T19:45:29.383Z,26.05
2023-02-02T19:48:02.395Z,24.27
2023-02-02T19:50:38.994Z,23.20
2023-02-02T19:53:15.728Z,30.67
2023-02-02T19:55:44.631Z,25.27
2023-02-02T19:58:19.654Z,27.08
2023-02-02T20:00:49.371Z,18.52
2023-02-02T20:03:21.356Z,23.13
2023-02-02T20:05:52.231Z,21.83
2023-02-02T20:08:26.995Z,21.33
2023-02-02T20:10:58.986Z,20.45
2023-02-02T20:13:38.720Z,28.00
2023-02-02T20:16:13.723Z,25.97
2023-02-02T20:18:46.193Z,37.72
2023-02-02T20:21:25.130Z,23.02
2023-02-02T20:23:53.886Z,31.08
2023-02-02T20:26:27.145Z,26.88
2023-02-02T20:28:57.094Z,25.05
2023-02-02T20:31:38.024Z,27.10
2023-02-02T20:36:48.821Z,20.77
2023-02-02T20:39:42.775Z,28.20
2023-02-02T20:42:11.444Z,27.30
2023-02-02T20:44:39.819Z,25.77
2023-02-02T20:47:08.856Z,30.27
2023-02-02T20:49:39.901Z,34.88
2023-02-02T20:52:13.000Z,26.20
2023-02-02T20:54:41.415Z,27.85
2023-02-02T20:57:09.823Z,37.25
2023-02-02T20:59:38.335Z,29.95
2023-02-02T21:02:06.929Z,28.40
2023-02-02T21:04:35.630Z,32.67
2023-02-02T21:07:05.483Z,24.02
2023-02-02T21:09:34.315Z,32.25
2023-02-02T21:12:03.034Z,28.55
2023-02-02T21:14:31.419Z,32.97
2023-02-02T21:17:13.983Z,32.28
2023-02-02T21:19:43.093Z,32.38
2023-02-02T21:22:13.649Z,27.23
2023-02-02T21:24:42.648Z,27.92
2023-02-02T21:27:11.346Z,32.75
2023-02-02T21:29:39.788Z,28.13
2023-02-02T21:32:08.335Z,29.83
2023-02-02T21:34:39.398Z,28.95
2023-02-02T21:37:16.790Z,28.23
2023-02-02T21:39:51.185Z,30.95
2023-02-02T21:42:21.918Z,31.27
2023-02-02T21:47:31.126Z,27.00
2023-02-02T21:50:11.284Z,29.98
2023-02-02T21:52:41.154Z,22.50
2023-02-02T21:55:34.302Z,26.67
2023-02-02T21:58:14.580Z,22.75
2023-02-02T22:00:42.926Z,21.00
2023-02-02T22:03:28.836Z,29.25
2023-02-02T22:06:26.900Z,26.38
2023-02-02T22:09:04.145Z,23.60
2023-02-02T22:11:45.563Z,23.20
2023-02-02T22:14:20.470Z,26.60
2023-02-02T22:16:52.352Z,24.13
2023-02-02T22:19:29.698Z,28.50
2023-02-02T22:22:15.579Z,28.58
2023-02-02T22:24:47.053Z,25.58
2023-02-02T22:27:22.569Z,30.92
2023-02-02T22:29:55.505Z,29.70
2023-02-02T22:32:23.876Z,27.40
2023-02-02T22:34:52.176Z,20.40
2023-02-02T22:37:20.540Z,23.15
2023-02-02T22:39:50.255Z,19.42
2023-02-02T22:42:18.878Z,24.67
2023-02-02T22:44:48.277Z,27.05
2023-02-02T22:47:16.618Z,22.40
2023-02-02T22:49:44.942Z,29.77
2023-02-02T22:52:13.314Z,23.40
2023-02-02T22:54:41.614Z,20.77
2023-02-02T22:57:11.403Z,23.40
2023-02-02T22:59:39.781Z,25.93
2023-02-02T23:02:08.138Z,27.83
2023-02-02T23:04:36.458Z,22.75
2023-02-02T23:07:04.857Z,26.00
2023-02-02T23:09:33.241Z,21.30
2023-02-02T23:12:01.882Z,31.08
2023-02-02T23:14:31.558Z,30.58
2023-02-02T23:17:00.267Z,35.38
2023-02-02T23:19:31.249Z,26.80
2023-02-02T23:21:59.761Z,26.80
2023-02-02T23:24:28.173Z,27.52
2023-02-02T23:26:56.692Z,26.17
2023-02-02T23:29:25.077Z,30.77
2023-02-02T23:31:54.945Z,26.95
2023-02-02T23:34:23.318Z,21.88
2023-02-02T23:36:53.560Z,22.67
2023-02-02T23:39:21.962Z,18.90
2023-02-02T23:41:50.277Z,33.90
2023-02-02T23:44:18.876Z,25.45
2023-02-02T23:46:47.481Z,24.70
2023-02-02T23:49:17.539Z,24.92
2023-02-02T23:51:46.221Z,25.50
2023-02-02T23:54:16.346Z,25.13
2023-02-02T23:56:44.813Z,22.83
2023-02-02T23:59:13.198Z,26.67
